createdAt,value
2017-06-08T00:00:00.035Z,43.14
2017-06-08T00:01:10.298Z,43.24
2017-06-08T00:02:19.932Z,43.14
2017-06-08T00:03:30.205Z,43.14
2017-06-08T00:04:39.843Z,43.24
2017-06-08T00:05:50.102Z,43.14
2017-06-08T00:07:00.051Z,43.04
2017-06-08T00:08:10.000Z,43.14
2017-06-08T00:09:20.262Z,43.24
2017-06-08T00:10:29.900Z,43.24
2017-06-08T00:11:39.220Z,43.33
2017-06-08T00:12:49.013Z,43.04
2017-06-08T00:13:58.964Z,43.14
2017-06-08T00:15:08.920Z,43.43
2017-06-08T00:16:18.873Z,43.24
2017-06-08T00:17:28.825Z,43.24
2017-06-08T00:18:39.085Z,43.33
2017-06-08T00:19:49.029Z,43.24
2017-06-08T00:20:58.671Z,43.52
2017-06-08T00:22:08.933Z,43.24
2017-06-08T00:23:18.885Z,43.04
2017-06-08T00:24:29.160Z,43.24
2017-06-08T00:25:39.112Z,43.52
2017-06-08T00:26:49.382Z,43.52
2017-06-08T00:27:59.682Z,43.24
2017-06-08T00:29:09.944Z,43.52
2017-06-08T00:30:19.414Z,43.43
2017-06-08T00:31:29.711Z,43.43
2017-06-08T00:32:39.973Z,43.62
2017-06-08T00:33:50.237Z,43.62
2017-06-08T00:35:00.186Z,43.62
2017-06-08T00:36:09.823Z,43.62
2017-06-08T00:37:19.776Z,43.62
2017-06-08T00:38:29.731Z,43.52
2017-06-08T00:39:39.696Z,43.62
2017-06-08T00:40:49.650Z,43.62
2017-06-08T00:41:59.291Z,43.43
2017-06-08T00:43:08.611Z,43.62
2017-06-08T00:44:18.568Z,43.72
2017-06-08T00:45:28.196Z,43.72
2017-06-08T00:46:38.457Z,43.62
2017-06-08T00:47:48.091Z,43.62
2017-06-08T00:48:57.734Z,43.62
2017-06-08T00:50:07.373Z,43.43
2017-06-08T00:51:17.332Z,43.62
2017-06-08T00:52:27.286Z,43.43
2017-06-08T00:53:37.706Z,43.62
2017-06-08T00:54:47.342Z,43.62
2017-06-08T00:55:56.671Z,43.43
2017-06-08T00:57:06.623Z,43.52
2017-06-08T00:58:16.590Z,43.41
2017-06-08T00:59:26.543Z,43.62
2017-06-08T01:00:36.490Z,43.62
2017-06-08T01:01:46.761Z,43.72
2017-06-08T01:02:56.706Z,43.43
2017-06-08T01:04:06.973Z,43.52
2017-06-08T01:05:17.243Z,43.43
2017-06-08T01:06:26.562Z,43.6
2017-06-08T01:07:36.515Z,43.62
2017-06-08T01:08:46.780Z,43.33
2017-06-08T01:09:56.728Z,43.33
2017-06-08T01:11:07.140Z,43.33
2017-06-08T01:12:17.408Z,43.62
2017-06-08T01:13:27.054Z,43.81
2017-06-08T01:14:37.318Z,43.91
2017-06-08T01:15:46.954Z,43.43
2017-06-08T01:16:56.905Z,43.91
2017-06-08T01:18:06.537Z,43.52
2017-06-08T01:19:16.829Z,43.81
2017-06-08T01:20:27.093Z,44.1
2017-06-08T01:21:37.050Z,43.72
2017-06-08T01:22:47.004Z,43.91
2017-06-08T01:23:57.265Z,43.81
2017-06-08T01:25:07.213Z,43.72
2017-06-08T01:26:17.164Z,44.01
2017-06-08T01:27:26.817Z,43.91
2017-06-08T01:28:37.084Z,43.91
2017-06-08T01:29:47.039Z,44.39
2017-06-08T01:30:57.307Z,43.72
2017-06-08T01:32:07.604Z,44.1
2017-06-08T01:33:17.549Z,44.1
2017-06-08T01:34:27.650Z,44.01
2017-06-08T01:35:37.915Z,43.62
2017-06-08T01:36:47.862Z,44.39
2017-06-08T01:37:58.136Z,43.62
2017-06-08T01:39:08.395Z,43.62
2017-06-08T01:40:18.662Z,43.72
2017-06-08T01:41:28.927Z,43.79
2017-06-08T01:42:39.197Z,44.29
2017-06-08T01:43:49.146Z,43.72
2017-06-08T01:44:58.471Z,44.01
2017-06-08T01:46:08.582Z,44.1
2017-06-08T01:47:18.844Z,43.62
2017-06-08T01:48:28.477Z,43.62
2017-06-08T01:49:38.741Z,43.62
2017-06-08T01:50:48.373Z,43.91
2017-06-08T01:51:58.329Z,43.81
2017-06-08T01:53:08.281Z,43.91
2017-06-08T01:54:18.227Z,44.01
2017-06-08T01:55:28.483Z,43.81
2017-06-08T01:56:38.750Z,44.01
2017-06-08T01:57:48.701Z,43.72
2017-06-08T01:58:58.965Z,44.01
2017-06-08T02:00:09.235Z,44.01
2017-06-08T02:01:19.186Z,43.79
2017-06-08T02:02:29.454Z,44.39
2017-06-08T02:03:39.551Z,43.72
2017-06-08T02:04:49.817Z,44.01
2017-06-08T02:05:59.767Z,43.81
2017-06-08T02:07:09.399Z,43.62
2017-06-08T02:08:19.343Z,44.37
2017-06-08T02:09:28.987Z,43.62
2017-06-08T02:10:38.938Z,43.7
2017-06-08T02:11:48.266Z,43.91
2017-06-08T02:12:58.214Z,43.72
2017-06-08T02:14:08.478Z,44.29
2017-06-08T02:15:18.744Z,43.79
2017-06-08T02:16:29.017Z,43.91
2017-06-08T02:17:39.279Z,43.91
2017-06-08T02:18:49.225Z,44.01
2017-06-08T02:19:59.177Z,43.91
2017-06-08T02:21:09.622Z,44.2
2017-06-08T02:22:19.571Z,43.72
2017-06-08T02:23:29.840Z,43.62
2017-06-08T02:24:39.476Z,44.2
2017-06-08T02:25:49.430Z,43.62
2017-06-08T02:26:59.386Z,44.01
2017-06-08T02:28:09.339Z,43.81
2017-06-08T02:29:18.982Z,44.18
2017-06-08T02:30:29.256Z,43.62
2017-06-08T02:31:38.897Z,44.01
2017-06-08T02:32:49.170Z,43.91
2017-06-08T02:33:59.443Z,44.01
2017-06-08T02:35:09.723Z,44.29
2017-06-08T02:36:19.990Z,44.39
2017-06-08T02:37:29.939Z,43.62
2017-06-08T02:38:40.049Z,43.81
2017-06-08T02:39:50.308Z,44.01
2017-06-08T02:40:59.988Z,43.81
2017-06-08T02:42:10.256Z,44.39
2017-06-08T02:43:20.212Z,43.89
2017-06-08T02:44:30.164Z,44.01
2017-06-08T02:45:40.429Z,43.89
2017-06-08T02:46:50.700Z,44.2
2017-06-08T02:48:00.965Z,43.81
2017-06-08T02:49:11.232Z,43.7
2017-06-08T02:50:21.340Z,43.52
2017-06-08T02:51:31.609Z,43.79
2017-06-08T02:52:41.565Z,43.91
2017-06-08T02:53:51.830Z,44.01
2017-06-08T02:55:02.094Z,44.1
2017-06-08T02:56:11.735Z,43.62
2017-06-08T02:57:21.377Z,43.79
2017-06-08T02:58:31.331Z,44.08
2017-06-08T02:59:41.593Z,43.72
2017-06-08T03:00:51.856Z,44.01
2017-06-08T03:02:01.803Z,43.62
2017-06-08T03:03:11.144Z,43.91
2017-06-08T03:04:20.463Z,44.01
2017-06-08T03:05:30.724Z,44.1
2017-06-08T03:06:40.672Z,43.62
2017-06-08T03:07:50.770Z,44.01
2017-06-08T03:09:00.726Z,44.2
2017-06-08T03:10:10.992Z,44.2
2017-06-08T03:11:21.254Z,44.08
2017-06-08T03:12:31.202Z,44.1
2017-06-08T03:13:41.150Z,44.1
2017-06-08T03:14:51.104Z,44.01
2017-06-08T03:16:00.424Z,44.01
2017-06-08T03:17:10.375Z,43.7
2017-06-08T03:18:20.640Z,43.62
2017-06-08T03:19:30.898Z,44.2
2017-06-08T03:20:40.213Z,44.37
2017-06-08T03:21:50.476Z,43.91
2017-06-08T03:23:00.767Z,43.79
2017-06-08T03:24:10.715Z,43.89
2017-06-08T03:25:20.821Z,43.91
2017-06-08T03:26:30.777Z,43.62
2017-06-08T03:27:40.728Z,44.01
2017-06-08T03:28:50.688Z,44.18
2017-06-08T03:30:00.641Z,43.81
2017-06-08T03:31:10.910Z,43.79
2017-06-08T03:32:21.177Z,43.81
2017-06-08T03:33:31.437Z,44.01
2017-06-08T03:34:41.697Z,44.2
2017-06-08T03:35:51.646Z,44.1
2017-06-08T03:37:01.596Z,44.2
2017-06-08T03:38:11.861Z,43.91
2017-06-08T03:39:21.806Z,43.72
2017-06-08T03:40:32.073Z,43.62
2017-06-08T03:41:42.346Z,43.79
2017-06-08T03:42:52.460Z,44.01
2017-06-08T03:44:02.719Z,43.91
2017-06-08T03:45:12.986Z,44.01
2017-06-08T03:46:23.249Z,44.1
2017-06-08T03:47:33.517Z,44.39
2017-06-08T03:48:43.472Z,43.72
2017-06-08T03:49:53.734Z,43.79
2017-06-08T03:51:03.706Z,43.81
2017-06-08T03:52:13.650Z,43.62
2017-06-08T03:53:23.911Z,44.01
2017-06-08T03:54:34.326Z,43.72
2017-06-08T03:55:44.591Z,43.91
2017-06-08T03:56:54.540Z,44.1
2017-06-08T03:58:04.810Z,43.43
2017-06-08T03:59:14.450Z,43.52
2017-06-08T04:00:24.084Z,43.43
2017-06-08T04:01:34.037Z,43.52
2017-06-08T04:02:44.008Z,43.81
2017-06-08T04:03:53.960Z,44.01
2017-06-08T04:05:04.222Z,43.81
2017-06-08T04:06:14.322Z,43.72
2017-06-08T04:07:24.274Z,43.79
2017-06-08T04:08:34.230Z,43.89
2017-06-08T04:09:44.505Z,43.81
2017-06-08T04:10:54.777Z,44.01
2017-06-08T04:12:04.728Z,43.43
2017-06-08T04:13:14.362Z,43.43
2017-06-08T04:14:24.312Z,43.62
2017-06-08T04:15:34.261Z,43.52
2017-06-08T04:16:44.210Z,43.62
2017-06-08T04:17:54.152Z,43.52
2017-06-08T04:19:04.101Z,43.24
2017-06-08T04:20:13.731Z,43.14
2017-06-08T04:21:23.994Z,43.33
2017-06-08T04:22:33.948Z,43.14
2017-06-08T04:23:44.367Z,43.33
2017-06-08T04:24:53.999Z,43.14
2017-06-08T04:26:03.653Z,43.12
2017-06-08T04:27:13.949Z,43.14
2017-06-08T04:28:24.214Z,43.24
2017-06-08T04:29:34.471Z,43.24
2017-06-08T04:30:44.735Z,43.04
2017-06-08T04:31:55.005Z,43.12
2017-06-08T04:33:04.016Z,43.04
2017-06-08T04:34:14.314Z,43.04
2017-06-08T04:35:24.430Z,43.24
2017-06-08T04:36:34.689Z,43.24
2017-06-08T04:37:44.331Z,43.14
2017-06-08T04:38:54.275Z,43.33
2017-06-08T04:40:04.541Z,43.12
2017-06-08T04:41:14.178Z,43.31
2017-06-08T04:42:24.445Z,43.41
2017-06-08T04:43:34.400Z,43.5
2017-06-08T04:44:44.352Z,43.62
2017-06-08T04:45:54.627Z,43.62
2017-06-08T04:47:04.899Z,43.33
2017-06-08T04:48:15.162Z,43.43
2017-06-08T04:49:25.429Z,43.81
2017-06-08T04:50:35.379Z,43.62
2017-06-08T04:51:45.334Z,43.24
2017-06-08T04:52:55.432Z,43.33
2017-06-08T04:54:05.692Z,43.43
2017-06-08T04:55:15.639Z,43.91
2017-06-08T04:56:25.590Z,43.81
2017-06-08T04:57:35.543Z,44.01
2017-06-08T04:58:44.557Z,43.91
2017-06-08T04:59:54.817Z,43.72
2017-06-08T05:01:04.141Z,43.33
2017-06-08T05:02:13.779Z,43.72
2017-06-08T05:03:24.042Z,44.1
2017-06-08T05:04:33.987Z,44.1
2017-06-08T05:05:44.266Z,44.01
2017-06-08T05:06:53.904Z,44.1
2017-06-08T05:08:04.169Z,44.1
2017-06-08T05:09:13.837Z,44.39
2017-06-08T05:10:22.841Z,44.59
2017-06-08T05:11:32.792Z,44.29
2017-06-08T05:12:43.061Z,44.59
2017-06-08T05:13:53.010Z,44.49
2017-06-08T05:15:03.274Z,44.59
2017-06-08T05:16:13.224Z,44.29
2017-06-08T05:17:23.173Z,44.2
2017-06-08T05:18:33.120Z,44.78
2017-06-08T05:19:43.077Z,44.49
2017-06-08T05:20:52.709Z,44.1
2017-06-08T05:22:02.496Z,44.39
2017-06-08T05:23:12.447Z,44.59
2017-06-08T05:24:22.714Z,44.97
2017-06-08T05:25:32.662Z,44.78
2017-06-08T05:26:42.622Z,44.2
2017-06-08T05:27:52.901Z,44.68
2017-06-08T05:29:02.851Z,44.68
2017-06-08T05:30:12.486Z,44.29
2017-06-08T05:31:22.748Z,44.2
2017-06-08T05:32:32.693Z,44.1
2017-06-08T05:33:42.966Z,44.29
2017-06-08T05:34:52.927Z,44.39
2017-06-08T05:36:02.871Z,44.39
2017-06-08T05:37:13.130Z,44.49
2017-06-08T05:38:23.112Z,44.49
2017-06-08T05:39:33.530Z,44.29
2017-06-08T05:40:43.789Z,44.59
2017-06-08T05:41:54.053Z,44.78
2017-06-08T05:43:04.034Z,44.68
2017-06-08T05:44:14.300Z,44.87
2017-06-08T05:45:23.941Z,44.2
2017-06-08T05:46:33.577Z,44.29
2017-06-08T05:47:43.528Z,44.2
2017-06-08T05:48:53.474Z,44.87
2017-06-08T05:50:03.744Z,44.29
2017-06-08T05:51:14.010Z,44.39
2017-06-08T05:52:24.272Z,44.2
2017-06-08T05:53:34.226Z,44.1
2017-06-08T05:54:44.175Z,44.29
2017-06-08T05:55:54.438Z,44.29
2017-06-08T05:57:04.544Z,44.29
2017-06-08T05:58:14.499Z,44.68
2017-06-08T05:59:24.144Z,44.78
2017-06-08T06:00:34.412Z,44.1
2017-06-08T06:01:44.370Z,44.87
2017-06-08T06:02:54.628Z,44.78
2017-06-08T06:04:04.890Z,44.59
2017-06-08T06:05:14.843Z,44.2
2017-06-08T06:06:24.805Z,44.2
2017-06-08T06:07:35.079Z,44.39
2017-06-08T06:08:45.026Z,44.1
2017-06-08T06:09:54.658Z,44.29
2017-06-08T06:11:04.926Z,44.1
2017-06-08T06:12:15.189Z,44.78
2017-06-08T06:13:25.452Z,44.39
2017-06-08T06:14:35.862Z,44.68
2017-06-08T06:15:46.172Z,44.39
2017-06-08T06:16:55.816Z,44.39
2017-06-08T06:18:05.456Z,44.39
2017-06-08T06:19:15.723Z,44.29
2017-06-08T06:20:25.984Z,44.39
2017-06-08T06:21:35.945Z,44.39
2017-06-08T06:22:46.217Z,44.49
2017-06-08T06:23:56.491Z,44.1
2017-06-08T06:25:06.760Z,44.39
2017-06-08T06:26:16.729Z,44.1
2017-06-08T06:27:26.996Z,44.49
2017-06-08T06:28:36.629Z,44.2
2017-06-08T06:29:46.578Z,44.2
2017-06-08T06:30:56.536Z,44.39
2017-06-08T06:32:06.642Z,44.2
2017-06-08T06:33:16.905Z,44.49
2017-06-08T06:34:26.859Z,44.49
2017-06-08T06:35:37.128Z,44.1
2017-06-08T06:36:47.082Z,44.49
2017-06-08T06:37:57.401Z,44.2
2017-06-08T06:39:07.351Z,44.2
2017-06-08T06:40:16.669Z,44.68
2017-06-08T06:41:26.931Z,44.2
2017-06-08T06:42:37.198Z,44.39
2017-06-08T06:43:47.296Z,44.49
2017-06-08T06:44:57.572Z,44.49
2017-06-08T06:46:07.216Z,44.2
2017-06-08T06:47:17.478Z,44.1
2017-06-08T06:48:27.745Z,44.42
2017-06-08T06:49:38.009Z,44.2
2017-06-08T06:50:47.643Z,44.68
2017-06-08T06:51:57.281Z,44.59
2017-06-08T06:53:07.549Z,44.59
2017-06-08T06:54:17.497Z,44.39
2017-06-08T06:55:27.759Z,44.29
2017-06-08T06:56:38.026Z,44.59
2017-06-08T06:57:47.978Z,44.9
2017-06-08T06:58:57.931Z,44.49
2017-06-08T07:00:07.883Z,44.59
2017-06-08T07:01:17.667Z,44.78
2017-06-08T07:02:27.933Z,44.87
2017-06-08T07:03:38.198Z,44.29
2017-06-08T07:04:48.459Z,44.6
2017-06-08T07:05:58.723Z,44.51
2017-06-08T07:07:08.676Z,44.59
2017-06-08T07:08:18.000Z,44.12
2017-06-08T07:09:28.265Z,44.51
2017-06-08T07:10:37.916Z,44.42
2017-06-08T07:11:47.878Z,44.51
2017-06-08T07:12:57.823Z,44.8
2017-06-08T07:14:07.142Z,44.6
2017-06-08T07:15:17.101Z,44.7
2017-06-08T07:16:27.376Z,44.32
2017-06-08T07:17:37.638Z,44.51
2017-06-08T07:18:47.741Z,44.6
2017-06-08T07:19:57.688Z,44.6
2017-06-08T07:21:07.951Z,44.32
2017-06-08T07:22:18.216Z,44.6
2017-06-08T07:23:28.485Z,44.9
2017-06-08T07:24:38.751Z,44.6
2017-06-08T07:25:49.018Z,44.9
2017-06-08T07:26:58.030Z,44.51
2017-06-08T07:28:07.980Z,44.6
2017-06-08T07:29:18.279Z,44.9
2017-06-08T07:30:28.387Z,44.9
2017-06-08T07:31:38.340Z,44.6
2017-06-08T07:32:48.599Z,44.51
2017-06-08T07:33:58.548Z,44.6
2017-06-08T07:35:08.179Z,44.22
2017-06-08T07:36:18.134Z,44.32
2017-06-08T07:37:28.394Z,44.22
2017-06-08T07:38:38.663Z,44.7
2017-06-08T07:39:48.929Z,44.51
2017-06-08T07:40:58.561Z,44.51
2017-06-08T07:42:08.834Z,44.6
2017-06-08T07:43:18.785Z,44.8
2017-06-08T07:44:28.741Z,44.6
2017-06-08T07:45:39.018Z,44.51
2017-06-08T07:46:48.343Z,44.6
2017-06-08T07:47:58.291Z,44.32
2017-06-08T07:49:07.926Z,44.32
2017-06-08T07:50:18.197Z,44.51
2017-06-08T07:51:28.144Z,44.6
2017-06-08T07:52:38.093Z,44.9
2017-06-08T07:53:48.062Z,44.51
2017-06-08T07:54:58.012Z,44.9
2017-06-08T07:56:07.965Z,44.7
2017-06-08T07:57:17.914Z,44.9
2017-06-08T07:58:28.185Z,44.32
2017-06-08T07:59:38.139Z,44.51
2017-06-08T08:00:47.775Z,44.8
2017-06-08T08:01:58.037Z,44.51
2017-06-08T08:03:07.989Z,45
2017-06-08T08:04:18.089Z,44.51
2017-06-08T08:05:28.355Z,45.09
2017-06-08T08:06:37.993Z,45.09
2017-06-08T08:07:48.256Z,45
2017-06-08T08:08:58.523Z,44.51
2017-06-08T08:10:08.940Z,45.09
2017-06-08T08:11:18.263Z,44.51
2017-06-08T08:12:27.593Z,44.7
2017-06-08T08:13:37.546Z,44.9
2017-06-08T08:14:47.810Z,44.51
2017-06-08T08:15:57.760Z,44.7
2017-06-08T08:17:08.022Z,45.09
2017-06-08T08:18:17.975Z,44.9
2017-06-08T08:19:27.920Z,44.8
2017-06-08T08:20:38.186Z,44.8
2017-06-08T08:21:48.597Z,44.9
2017-06-08T08:22:58.558Z,44.8
2017-06-08T08:24:08.516Z,44.8
2017-06-08T08:25:18.780Z,44.51
2017-06-08T08:26:28.420Z,44.42
2017-06-08T08:27:38.056Z,44.7
2017-06-08T08:28:47.695Z,44.8
2017-06-08T08:29:57.642Z,44.7
2017-06-08T08:31:07.601Z,44.8
2017-06-08T08:32:17.588Z,44.6
2017-06-08T08:33:27.537Z,44.7
2017-06-08T08:34:37.493Z,44.6
2017-06-08T08:35:47.766Z,44.51
2017-06-08T08:36:57.716Z,44.9
2017-06-08T08:38:07.037Z,44.6
2017-06-08T08:39:16.988Z,44.8
2017-06-08T08:40:27.257Z,44.7
2017-06-08T08:41:37.204Z,44.51
2017-06-08T08:42:47.508Z,44.6
2017-06-08T08:43:57.769Z,44.8
2017-06-08T08:45:07.097Z,44.8
2017-06-08T08:46:17.043Z,44.8
2017-06-08T08:47:27.306Z,44.6
2017-06-08T08:48:37.263Z,44.51
2017-06-08T08:49:47.213Z,44.7
2017-06-08T08:50:57.633Z,44.9
2017-06-08T08:52:07.903Z,44.9
2017-06-08T08:53:17.849Z,44.7
2017-06-08T08:54:28.111Z,44.9
2017-06-08T08:55:38.380Z,44.51
2017-06-08T08:56:48.020Z,44.9
2017-06-08T08:57:57.656Z,44.8
2017-06-08T08:59:07.611Z,44.6
2017-06-08T09:00:17.881Z,44.7
2017-06-08T09:01:28.172Z,44.22
2017-06-08T09:02:37.805Z,44.8
2017-06-08T09:03:47.432Z,44.51
2017-06-08T09:04:57.395Z,44.7
2017-06-08T09:06:07.385Z,44.42
2017-06-08T09:07:17.655Z,44.8
2017-06-08T09:08:27.920Z,44.8
2017-06-08T09:09:38.189Z,44.51
2017-06-08T09:10:48.453Z,44.8
2017-06-08T09:11:58.407Z,44.7
2017-06-08T09:13:08.039Z,44.8
2017-06-08T09:14:18.450Z,44.7
2017-06-08T09:15:28.397Z,44.9
2017-06-08T09:16:38.036Z,45.09
2017-06-08T09:17:47.667Z,44.8
2017-06-08T09:18:57.623Z,44.8
2017-06-08T09:20:07.893Z,44.51
2017-06-08T09:21:17.526Z,44.8
2017-06-08T09:22:27.164Z,44.51
2017-06-08T09:23:36.799Z,44.42
2017-06-08T09:24:47.056Z,44.51
2017-06-08T09:25:57.480Z,44.8
2017-06-08T09:27:07.745Z,44.8
2017-06-08T09:28:17.068Z,44.9
2017-06-08T09:29:26.711Z,44.51
2017-06-08T09:30:36.969Z,44.9
2017-06-08T09:31:47.235Z,44.7
2017-06-08T09:32:57.183Z,44.8
2017-06-08T09:34:06.500Z,44.9
2017-06-08T09:35:16.479Z,44.7
2017-06-08T09:36:26.428Z,44.9
2017-06-08T09:37:36.695Z,44.9
2017-06-08T09:38:46.334Z,44.7
2017-06-08T09:39:56.279Z,44.8
2017-06-08T09:41:06.227Z,45
2017-06-08T09:42:15.559Z,44.7
2017-06-08T09:43:26.000Z,44.8
2017-06-08T09:44:35.635Z,44.51
2017-06-08T09:45:45.905Z,44.8
2017-06-08T09:46:55.861Z,44.9
2017-06-08T09:48:05.502Z,44.6
2017-06-08T09:49:15.773Z,44.6
2017-06-08T09:50:26.037Z,44.7
2017-06-08T09:51:35.985Z,44.8
2017-06-08T09:52:46.245Z,44.51
2017-06-08T09:53:56.507Z,44.8
2017-06-08T09:55:06.775Z,44.51
2017-06-08T09:56:16.738Z,44.6
2017-06-08T09:57:26.688Z,44.6
2017-06-08T09:58:36.652Z,44.6
2017-06-08T09:59:46.604Z,44.6
2017-06-08T10:00:56.711Z,44.9
2017-06-08T10:02:06.355Z,44.7
2017-06-08T10:03:15.989Z,44.7
2017-06-08T10:04:25.938Z,44.6
2017-06-08T10:05:35.886Z,44.51
2017-06-08T10:06:45.560Z,44.6
2017-06-08T10:07:55.510Z,44.8
2017-06-08T10:09:05.465Z,44.51
2017-06-08T10:10:15.728Z,44.7
2017-06-08T10:11:25.366Z,44.8
2017-06-08T10:12:35.316Z,45
2017-06-08T10:13:45.582Z,44.9
2017-06-08T10:14:55.848Z,45
2017-06-08T10:16:05.804Z,44.7
2017-06-08T10:17:16.070Z,44.8
2017-06-08T10:18:26.483Z,44.9
2017-06-08T10:19:36.749Z,44.51
2017-06-08T10:20:47.013Z,44.9
2017-06-08T10:21:56.965Z,44.9
2017-06-08T10:23:06.926Z,44.42
2017-06-08T10:24:17.192Z,44.7
2017-06-08T10:25:26.828Z,44.6
2017-06-08T10:26:36.467Z,45
2017-06-08T10:27:45.793Z,44.9
2017-06-08T10:28:56.053Z,44.9
2017-06-08T10:30:06.178Z,44.8
2017-06-08T10:31:16.452Z,44.8
2017-06-08T10:32:26.410Z,44.9
2017-06-08T10:33:36.673Z,44.7
2017-06-08T10:34:46.627Z,44.51
2017-06-08T10:35:55.946Z,44.7
2017-06-08T10:37:05.894Z,45
2017-06-08T10:38:15.524Z,44.9
2017-06-08T10:39:24.859Z,45
2017-06-08T10:40:34.811Z,44.6
2017-06-08T10:41:45.083Z,45.09
2017-06-08T10:42:55.354Z,44.7
2017-06-08T10:44:04.990Z,44.51
2017-06-08T10:45:14.970Z,44.8
2017-06-08T10:46:25.248Z,45.09
2017-06-08T10:47:35.348Z,45.09
2017-06-08T10:48:45.608Z,45.09
2017-06-08T10:49:55.907Z,44.8
2017-06-08T10:51:05.856Z,45.09
2017-06-08T10:52:15.175Z,44.42
2017-06-08T10:53:25.441Z,45
2017-06-08T10:54:35.712Z,44.51
2017-06-08T10:55:45.971Z,44.6
2017-06-08T10:56:55.927Z,44.7
2017-06-08T10:58:05.567Z,44.22
2017-06-08T10:59:15.517Z,44.6
2017-06-08T11:00:25.781Z,44.6
2017-06-08T11:01:36.047Z,44.42
2017-06-08T11:02:45.995Z,44.22
2017-06-08T11:03:55.634Z,44.22
2017-06-08T11:05:05.735Z,44.32
2017-06-08T11:06:15.368Z,44.42
2017-06-08T11:07:25.317Z,44.6
2017-06-08T11:08:34.952Z,44.8
2017-06-08T11:09:44.901Z,45.09
2017-06-08T11:10:55.182Z,44.42
2017-06-08T11:12:05.135Z,44.51
2017-06-08T11:13:15.081Z,44.9
2017-06-08T11:14:25.349Z,44.6
2017-06-08T11:15:34.983Z,44.6
2017-06-08T11:16:45.402Z,44.51
2017-06-08T11:17:55.668Z,44.51
2017-06-08T11:19:05.624Z,44.6
2017-06-08T11:20:15.572Z,44.9
2017-06-08T11:21:25.874Z,44.6
2017-06-08T11:22:35.824Z,44.7
2017-06-08T11:23:45.772Z,44.9
2017-06-08T11:24:55.730Z,44.9
2017-06-08T11:26:05.366Z,44.9
2017-06-08T11:27:15.002Z,44.51
2017-06-08T11:28:25.148Z,44.51
2017-06-08T11:29:35.102Z,44.42
2017-06-08T11:30:45.372Z,44.22
2017-06-08T11:31:55.634Z,44.7
2017-06-08T11:33:05.586Z,44.51
2017-06-08T11:34:15.534Z,44.42
2017-06-08T11:35:25.800Z,44.22
2017-06-08T11:36:36.067Z,44.51
2017-06-08T11:37:46.025Z,44.6
2017-06-08T11:38:55.975Z,44.8
2017-06-08T11:40:06.416Z,45
2017-06-08T11:41:16.369Z,45.09
2017-06-08T11:42:26.006Z,45
2017-06-08T11:43:35.347Z,45.18
2017-06-08T11:44:45.295Z,45.28
2017-06-08T11:45:55.242Z,44.9
2017-06-08T11:47:04.879Z,44.9
2017-06-08T11:48:15.144Z,44.7
2017-06-08T11:49:25.094Z,44.9
2017-06-08T11:50:35.360Z,44.9
2017-06-08T11:51:45.780Z,44.7
2017-06-08T11:52:55.732Z,44.8
2017-06-08T11:54:05.999Z,45.28
2017-06-08T11:55:16.272Z,45.09
2017-06-08T11:56:26.230Z,44.8
2017-06-08T11:57:35.870Z,45.18
2017-06-08T11:58:45.513Z,45.28
2017-06-08T11:59:54.840Z,45.38
2017-06-08T12:01:05.118Z,45.38
2017-06-08T12:02:15.067Z,45.57
2017-06-08T12:03:25.017Z,44.6
2017-06-08T12:04:35.287Z,45.28
2017-06-08T12:05:44.924Z,45.28
2017-06-08T12:06:54.872Z,45.28
2017-06-08T12:08:04.820Z,45.57
2017-06-08T12:09:14.607Z,44.8
2017-06-08T12:10:24.871Z,45
2017-06-08T12:11:34.827Z,45.18
2017-06-08T12:12:45.098Z,45.48
2017-06-08T12:13:55.371Z,45.28
2017-06-08T12:15:05.324Z,45.76
2017-06-08T12:16:14.977Z,45.57
2017-06-08T12:17:25.283Z,45.09
2017-06-08T12:18:35.234Z,45.18
2017-06-08T12:19:45.187Z,45.18
2017-06-08T12:20:55.455Z,45.28
2017-06-08T12:22:05.408Z,45.18
2017-06-08T12:23:15.054Z,45.18
2017-06-08T12:24:25.346Z,45.67
2017-06-08T12:25:35.297Z,45.48
2017-06-08T12:26:45.562Z,45.18
2017-06-08T12:27:55.518Z,45.28
2017-06-08T12:29:05.477Z,45.57
2017-06-08T12:30:15.741Z,45.67
2017-06-08T12:31:25.065Z,45.57
2017-06-08T12:32:35.023Z,45.57
2017-06-08T12:33:45.284Z,45
2017-06-08T12:34:54.916Z,45.57
2017-06-08T12:36:04.561Z,44.6
2017-06-08T12:37:14.977Z,45.09
2017-06-08T12:38:25.274Z,45.18
2017-06-08T12:39:35.226Z,45.18
2017-06-08T12:40:45.181Z,45.28
2017-06-08T12:41:55.483Z,45.67
2017-06-08T12:43:05.430Z,45.57
2017-06-08T12:44:15.379Z,45.28
2017-06-08T12:45:25.326Z,45.67
2017-06-08T12:46:35.606Z,44.9
2017-06-08T12:47:45.559Z,45
2017-06-08T12:48:55.983Z,45
2017-06-08T12:50:05.933Z,45.28
2017-06-08T12:51:15.885Z,45.28
2017-06-08T12:52:25.517Z,46.06
2017-06-08T12:53:35.465Z,46.15
2017-06-08T12:54:45.409Z,46.15
2017-06-08T12:55:55.358Z,46.25
2017-06-08T12:57:05.622Z,46.06
2017-06-08T12:58:15.892Z,46.34
2017-06-08T12:59:25.846Z,45.86
2017-06-08T13:00:35.490Z,45.96
2017-06-08T13:01:45.442Z,45.86
2017-06-08T13:02:55.702Z,46.25
2017-06-08T13:04:05.961Z,45.76
2017-06-08T13:05:16.251Z,46.92
2017-06-08T13:06:26.670Z,45.86
2017-06-08T13:07:36.311Z,45.86
2017-06-08T13:08:46.580Z,46.06
2017-06-08T13:09:56.846Z,45.86
2017-06-08T13:11:06.794Z,46.44
2017-06-08T13:12:16.926Z,46.34
2017-06-08T13:13:26.879Z,45.76
2017-06-08T13:14:36.518Z,45.96
2017-06-08T13:15:46.157Z,46.06
2017-06-08T13:16:56.147Z,46.64
2017-06-08T13:18:05.785Z,45.96
2017-06-08T13:19:16.041Z,46.83
2017-06-08T13:20:26.313Z,45.86
2017-06-08T13:21:36.266Z,46.06
2017-06-08T13:22:45.899Z,46.64
2017-06-08T13:23:55.850Z,46.06
2017-06-08T13:25:05.488Z,46.44
2017-06-08T13:26:15.439Z,46.44
2017-06-08T13:27:25.704Z,45.96
2017-06-08T13:28:36.006Z,45.96
2017-06-08T13:29:46.280Z,46.25
2017-06-08T13:30:55.921Z,46.83
2017-06-08T13:32:06.182Z,46.25
2017-06-08T13:33:16.490Z,46.54
2017-06-08T13:34:26.432Z,46.06
2017-06-08T13:35:36.697Z,45.96
2017-06-08T13:36:46.966Z,45.86
2017-06-08T13:37:57.234Z,46.06
2017-06-08T13:39:07.017Z,46.06
2017-06-08T13:40:16.977Z,46.73
2017-06-08T13:41:26.930Z,45.96
2017-06-08T13:42:36.880Z,46.83
2017-06-08T13:43:47.148Z,45.76
2017-06-08T13:44:56.782Z,45.76
2017-06-08T13:46:06.730Z,45.76
2017-06-08T13:47:16.678Z,46.06
2017-06-08T13:48:26.624Z,46.06
2017-06-08T13:49:36.891Z,45.96
2017-06-08T13:50:47.176Z,45.98
2017-06-08T13:51:57.441Z,45.79
2017-06-08T13:53:07.390Z,46.25
2017-06-08T13:54:17.023Z,46.56
2017-06-08T13:55:26.973Z,45.96
2017-06-08T13:56:37.073Z,46.66
2017-06-08T13:57:46.711Z,45.79
2017-06-08T13:58:56.661Z,45.79
2017-06-08T14:00:06.915Z,46.83
2017-06-08T14:01:16.555Z,45.76
2017-06-08T14:02:25.874Z,45.86
2017-06-08T14:03:35.823Z,46.06
2017-06-08T14:04:45.801Z,45.96
2017-06-08T14:05:56.061Z,45.76
2017-06-08T14:07:05.691Z,45.76
2017-06-08T14:08:15.473Z,45.96
2017-06-08T14:09:25.753Z,46.83
2017-06-08T14:10:35.391Z,46.06
2017-06-08T14:11:45.028Z,45.96
2017-06-08T14:12:54.978Z,45.86
2017-06-08T14:14:05.237Z,45.67
2017-06-08T14:15:15.185Z,45.76
2017-06-08T14:16:25.455Z,46.44
2017-06-08T14:17:35.408Z,45.86
2017-06-08T14:18:45.363Z,45.86
2017-06-08T14:19:55.622Z,46.15
2017-06-08T14:21:05.573Z,45.86
2017-06-08T14:22:15.212Z,46.06
2017-06-08T14:23:24.856Z,45.96
2017-06-08T14:24:34.959Z,45.76
2017-06-08T14:25:44.911Z,45.67
2017-06-08T14:26:55.174Z,46.25
2017-06-08T14:28:05.442Z,46.25
2017-06-08T14:29:15.396Z,45.67
2017-06-08T14:30:25.360Z,46.25
2017-06-08T14:31:34.688Z,46.25
2017-06-08T14:32:44.321Z,45.67
2017-06-08T14:33:54.281Z,45.76
2017-06-08T14:35:03.286Z,45.67
2017-06-08T14:36:13.550Z,45.76
2017-06-08T14:37:23.501Z,46.15
2017-06-08T14:38:33.178Z,45.96
2017-06-08T14:39:43.142Z,46.15
2017-06-08T14:40:53.411Z,45.76
2017-06-08T14:42:02.569Z,45.96
2017-06-08T14:43:12.224Z,46.15
2017-06-08T14:44:21.550Z,45.76
2017-06-08T14:45:31.499Z,46.25
2017-06-08T14:46:41.792Z,46.25
2017-06-08T14:47:52.070Z,45.76
2017-06-08T14:49:02.331Z,45.86
2017-06-08T14:50:12.290Z,45.86
2017-06-08T14:51:22.554Z,46.25
2017-06-08T14:52:32.512Z,45.86
2017-06-08T14:53:42.773Z,45.86
2017-06-08T14:54:53.031Z,45.76
2017-06-08T14:56:02.352Z,45.96
2017-06-08T14:57:12.615Z,45.86
2017-06-08T14:58:22.564Z,45.76
2017-06-08T14:59:32.512Z,46.25
2017-06-08T15:00:42.775Z,45.86
2017-06-08T15:01:53.039Z,45.76
2017-06-08T15:03:03.302Z,46.15
2017-06-08T15:04:13.570Z,46.15
2017-06-08T15:05:23.521Z,46.06
2017-06-08T15:06:33.789Z,45.76
2017-06-08T15:07:43.435Z,46.15
2017-06-08T15:08:53.702Z,45.67
2017-06-08T15:10:03.967Z,45.76